createdAt,value
2023-11-22T00:02:13.739Z,11.95
2023-11-22T00:04:40.093Z,9.77
2023-11-22T00:07:06.470Z,11.70
2023-11-22T00:09:33.008Z,14.40
2023-11-22T00:12:01.128Z,13.23
2023-11-22T00:14:28.146Z,11.27
2023-11-22T00:16:54.579Z,11.90
2023-11-22T00:19:23.387Z,13.32
2023-11-22T00:21:50.001Z,13.40
2023-11-22T00:24:16.332Z,17.02
2023-11-22T00:26:42.632Z,11.30
2023-11-22T00:29:09.562Z,11.63
2023-11-22T00:31:35.897Z,8.90
2023-11-22T00:34:02.199Z,13.07
2023-11-22T00:36:28.575Z,10.27
2023-11-22T00:38:54.972Z,10.35
2023-11-22T00:41:21.596Z,11.48
2023-11-22T00:43:48.320Z,17.20
2023-11-22T00:46:14.739Z,11.95
2023-11-22T00:48:41.245Z,13.00
2023-11-22T00:51:10.108Z,13.27
2023-11-22T00:53:39.628Z,15.50
2023-11-22T00:56:07.295Z,15.88
2023-11-22T00:58:33.690Z,10.05
2023-11-22T01:01:00.696Z,16.63
2023-11-22T01:03:27.110Z,13.75
2023-11-22T01:05:54.058Z,10.30
2023-11-22T01:08:20.504Z,10.77
2023-11-22T01:10:47.101Z,13.23
2023-11-22T01:13:13.460Z,11.88
2023-11-22T01:15:39.791Z,12.68
2023-11-22T01:18:06.145Z,12.88
2023-11-22T01:20:32.503Z,14.55
2023-11-22T01:22:58.954Z,14.77
2023-11-22T01:25:25.318Z,12.88
2023-11-22T01:27:51.674Z,10.95
2023-11-22T01:30:19.408Z,8.98
2023-11-22T01:32:46.216Z,12.88
2023-11-22T01:35:12.674Z,9.38
2023-11-22T01:37:39.009Z,7.93
2023-11-22T01:40:05.591Z,8.60
2023-11-22T01:42:31.936Z,10.20
2023-11-22T01:44:58.497Z,13.57
2023-11-22T01:47:25.222Z,14.60
2023-11-22T01:49:51.607Z,9.43
2023-11-22T01:52:18.035Z,11.27
2023-11-22T01:54:45.170Z,8.93
2023-11-22T01:57:11.448Z,10.68
2023-11-22T01:59:39.001Z,9.15
2023-11-22T02:02:05.500Z,8.20
2023-11-22T02:04:32.021Z,9.55
2023-11-22T02:06:58.602Z,16.42
2023-11-22T02:09:26.137Z,7.93
2023-11-22T02:11:53.172Z,7.57
2023-11-22T02:14:20.195Z,7.50
2023-11-22T02:16:46.694Z,10.93
2023-11-22T02:19:15.594Z,14.80
2023-11-22T02:21:41.918Z,9.73
2023-11-22T02:24:08.386Z,7.13
2023-11-22T02:26:34.776Z,11.43
2023-11-22T02:29:01.088Z,12.27
2023-11-22T02:31:28.612Z,8.80
2023-11-22T02:33:56.232Z,9.98
2023-11-22T02:36:25.797Z,8.27
2023-11-22T02:38:52.515Z,18.95
2023-11-22T02:41:19.685Z,6.88
2023-11-22T02:43:47.294Z,8.32
2023-11-22T02:46:13.711Z,7.78
2023-11-22T02:48:40.303Z,11.55
2023-11-22T02:51:07.808Z,7.68
2023-11-22T02:53:34.644Z,11.25
2023-11-22T02:56:01.738Z,9.75
2023-11-22T02:58:29.406Z,9.20
2023-11-22T03:00:58.103Z,10.07
2023-11-22T03:03:25.116Z,13.80
2023-11-22T03:05:51.678Z,7.28
2023-11-22T03:08:18.201Z,8.77
2023-11-22T03:10:44.699Z,7.68
2023-11-22T03:13:11.044Z,6.95
2023-11-22T03:15:37.446Z,10.63
2023-11-22T03:18:05.714Z,8.25
2023-11-22T03:20:33.655Z,12.63
2023-11-22T03:23:00.058Z,8.57
2023-11-22T03:25:26.644Z,11.23
2023-11-22T03:27:53.119Z,11.10
2023-11-22T03:30:19.418Z,9.90
2023-11-22T03:32:45.874Z,10.40
2023-11-22T03:35:13.317Z,9.15
2023-11-22T03:37:39.794Z,9.25
2023-11-22T03:40:06.451Z,12.88
2023-11-22T03:42:32.775Z,10.65
2023-11-22T03:45:00.652Z,13.38
2023-11-22T03:47:27.174Z,8.60
2023-11-22T03:49:53.561Z,17.15
2023-11-22T03:52:19.921Z,18.23
2023-11-22T03:54:46.289Z,13.38
2023-11-22T03:57:12.599Z,9.50
2023-11-22T03:59:38.963Z,7.50
2023-11-22T04:02:05.555Z,20.98
2023-11-22T04:04:31.954Z,8.65
2023-11-22T04:06:58.659Z,7.65
2023-11-22T04:09:24.990Z,23.92
2023-11-22T04:11:51.290Z,9.85
2023-11-22T04:14:17.647Z,7.90
2023-11-22T04:16:44.285Z,9.27
2023-11-22T04:19:11.345Z,10.18
2023-11-22T04:21:38.035Z,6.15
2023-11-22T04:24:04.555Z,11.02
2023-11-22T04:26:30.948Z,10.80
2023-11-22T04:28:57.363Z,7.57
2023-11-22T04:31:23.696Z,10.45
2023-11-22T04:33:50.197Z,9.00
2023-11-22T04:36:17.610Z,8.23
2023-11-22T04:38:44.039Z,8.40
2023-11-22T04:41:10.398Z,9.98
2023-11-22T04:43:37.949Z,7.80
2023-11-22T04:46:05.328Z,8.18
2023-11-22T04:48:31.729Z,10.10
2023-11-22T04:50:58.052Z,17.88
2023-11-22T04:53:24.379Z,10.55
2023-11-22T04:55:50.721Z,9.05
2023-11-22T04:58:17.085Z,11.75
2023-11-22T05:00:43.440Z,10.73
2023-11-22T05:03:09.913Z,12.55
2023-11-22T05:05:36.250Z,12.32
2023-11-22T05:08:03.826Z,10.43
2023-11-22T05:10:30.205Z,10.98
2023-11-22T05:13:00.442Z,12.60
2023-11-22T05:15:27.746Z,12.73
2023-11-22T05:17:54.112Z,11.88
2023-11-22T05:20:20.470Z,12.02
2023-11-22T05:22:46.815Z,9.23
2023-11-22T05:25:13.185Z,12.05
2023-11-22T05:27:39.526Z,12.63
2023-11-22T05:30:06.244Z,13.52
2023-11-22T05:32:32.665Z,11.63
2023-11-22T05:34:59.000Z,9.40
2023-11-22T05:37:27.423Z,15.25
2023-11-22T05:39:53.939Z,10.75
2023-11-22T05:42:20.319Z,13.75
2023-11-22T05:44:46.682Z,9.27
2023-11-22T05:47:14.381Z,11.02
2023-11-22T05:49:40.883Z,15.40
2023-11-22T05:52:07.279Z,14.98
2023-11-22T05:54:33.647Z,13.23
2023-11-22T05:56:59.937Z,13.43
2023-11-22T05:59:26.292Z,12.52
2023-11-22T06:01:52.665Z,11.52
2023-11-22T06:04:19.067Z,15.13
2023-11-22T06:06:45.415Z,11.30
2023-11-22T06:09:15.404Z,11.50
2023-11-22T06:11:41.792Z,15.30
2023-11-22T06:14:08.160Z,12.88
2023-11-22T06:16:34.547Z,13.07
2023-11-22T06:19:00.901Z,12.60
2023-11-22T06:21:28.105Z,12.73
2023-11-22T06:23:56.421Z,16.17
2023-11-22T06:26:22.793Z,14.57
2023-11-22T06:28:50.422Z,15.20
2023-11-22T06:31:16.782Z,14.98
2023-11-22T06:33:43.109Z,14.73
2023-11-22T06:36:12.455Z,12.65
2023-11-22T06:38:38.774Z,12.77
2023-11-22T06:41:05.126Z,11.98
2023-11-22T06:43:31.460Z,11.05
2023-11-22T06:45:57.898Z,11.63
2023-11-22T06:48:24.278Z,13.95
2023-11-22T06:50:50.626Z,13.82
2023-11-22T06:53:20.489Z,13.93
2023-11-22T06:55:47.110Z,12.43
2023-11-22T06:58:14.731Z,14.55
2023-11-22T07:00:41.647Z,17.77
2023-11-22T07:03:08.211Z,12.90
2023-11-22T07:05:34.821Z,15.10
2023-11-22T07:08:01.154Z,15.48
2023-11-22T07:10:27.881Z,12.00
2023-11-22T07:12:54.218Z,13.57
2023-11-22T07:15:20.538Z,15.35
2023-11-22T07:17:46.991Z,18.95
2023-11-22T07:20:17.539Z,16.90
2023-11-22T07:25:19.030Z,15.75
2023-11-22T07:27:46.639Z,22.45
2023-11-22T07:30:14.338Z,20.52
2023-11-22T07:32:41.627Z,16.40
2023-11-22T07:35:09.595Z,17.50
2023-11-22T07:37:36.912Z,18.27
2023-11-22T07:40:05.931Z,19.55
2023-11-22T07:42:32.224Z,21.20
2023-11-22T07:44:58.557Z,17.20
2023-11-22T07:47:25.425Z,21.02
2023-11-22T07:49:52.683Z,16.63
2023-11-22T07:52:19.004Z,21.73
2023-11-22T07:54:45.847Z,18.55
2023-11-22T07:57:12.201Z,18.50
2023-11-22T07:59:38.664Z,18.92
2023-11-22T08:02:08.891Z,19.65
2023-11-22T08:04:35.572Z,16.42
2023-11-22T08:07:02.699Z,18.75
2023-11-22T08:09:33.680Z,24.83
2023-11-22T08:12:04.838Z,19.83
2023-11-22T08:14:32.084Z,18.33
2023-11-22T08:16:58.580Z,21.65
2023-11-22T08:19:25.709Z,16.48
2023-11-22T08:21:52.220Z,19.30
2023-11-22T08:24:19.909Z,16.00
2023-11-22T08:26:46.419Z,25.35
2023-11-22T08:29:12.785Z,18.98
2023-11-22T08:31:39.173Z,16.45
2023-11-22T08:34:07.831Z,21.20
2023-11-22T08:36:37.144Z,19.63
2023-11-22T08:39:04.726Z,27.25
2023-11-22T08:41:31.466Z,21.65
2023-11-22T08:43:57.838Z,18.98
2023-11-22T08:46:24.416Z,16.70
2023-11-22T08:48:51.855Z,22.55
2023-11-22T08:51:18.705Z,20.55
2023-11-22T08:53:45.877Z,15.48
2023-11-22T08:56:12.689Z,17.42
2023-11-22T08:58:39.980Z,21.75
2023-11-22T09:01:07.677Z,20.35
2023-11-22T09:03:34.515Z,25.27
2023-11-22T09:06:01.432Z,21.45
2023-11-22T09:08:30.318Z,21.88
2023-11-22T09:10:57.569Z,24.03
2023-11-22T09:13:23.912Z,24.00
2023-11-22T09:15:50.924Z,20.83
2023-11-22T09:18:17.473Z,22.58
2023-11-22T09:20:47.113Z,26.05
2023-11-22T09:23:16.037Z,20.70
2023-11-22T09:25:42.406Z,20.45
2023-11-22T09:28:10.385Z,19.05
2023-11-22T09:30:38.940Z,27.20
2023-11-22T09:33:06.779Z,24.05
2023-11-22T09:35:34.885Z,23.50
2023-11-22T09:38:01.954Z,19.20
2023-11-22T09:40:29.871Z,24.00
2023-11-22T09:42:56.797Z,19.23
2023-11-22T09:45:23.157Z,19.67
2023-11-22T09:47:49.830Z,23.10
2023-11-22T09:50:39.657Z,18.33
2023-11-22T09:53:10.446Z,19.13
2023-11-22T09:55:38.498Z,26.65
2023-11-22T09:58:05.215Z,19.92
2023-11-22T10:00:31.809Z,21.55
2023-11-22T10:02:58.913Z,18.38
2023-11-22T10:05:25.787Z,21.98
2023-11-22T10:07:52.824Z,20.90
2023-11-22T10:10:21.141Z,24.52
2023-11-22T10:12:48.024Z,22.60
2023-11-22T10:15:15.128Z,26.15
2023-11-22T10:17:41.756Z,26.00
2023-11-22T10:20:12.240Z,22.83
2023-11-22T10:22:48.994Z,22.98
2023-11-22T10:25:19.589Z,19.25
2023-11-22T10:27:48.643Z,22.80
2023-11-22T10:30:17.778Z,23.23
2023-11-22T10:32:44.242Z,21.45
2023-11-22T10:35:10.731Z,22.55
2023-11-22T10:37:37.172Z,20.25
2023-11-22T10:40:06.524Z,17.92
2023-11-22T10:42:34.292Z,27.55
2023-11-22T10:45:04.291Z,20.15
2023-11-22T10:47:31.266Z,23.35
2023-11-22T10:49:57.742Z,19.45
2023-11-22T10:52:27.383Z,16.70
2023-11-22T10:54:56.386Z,20.50
2023-11-22T10:57:25.370Z,19.10
2023-11-22T10:59:54.946Z,15.50
2023-11-22T11:02:23.484Z,18.90
2023-11-22T11:04:58.928Z,18.33
2023-11-22T11:07:28.052Z,15.75
2023-11-22T11:09:54.995Z,16.13
2023-11-22T11:12:22.378Z,17.52
2023-11-22T11:14:50.436Z,17.58
2023-11-22T11:17:17.335Z,17.23
2023-11-22T11:19:43.728Z,20.75
2023-11-22T11:22:11.286Z,17.70
2023-11-22T11:24:41.379Z,18.48
2023-11-22T11:27:11.663Z,19.83
2023-11-22T11:29:41.788Z,24.05
2023-11-22T11:32:12.498Z,21.23
2023-11-22T11:34:47.802Z,17.90
2023-11-22T11:37:14.872Z,15.20
2023-11-22T11:39:41.643Z,18.55
2023-11-22T11:42:19.004Z,17.60
2023-11-22T11:45:03.806Z,24.20
2023-11-22T11:47:30.215Z,23.02
2023-11-22T11:49:57.248Z,17.58
2023-11-22T11:52:24.092Z,17.23
2023-11-22T11:54:51.689Z,19.83
2023-11-22T11:57:18.065Z,18.88
2023-11-22T11:59:46.376Z,17.50
2023-11-22T12:02:12.882Z,22.63
2023-11-22T12:04:41.024Z,19.08
2023-11-22T12:07:09.074Z,15.23
2023-11-22T12:09:36.723Z,17.55
2023-11-22T12:12:04.289Z,19.58
2023-11-22T12:14:30.664Z,15.95
2023-11-22T12:16:59.189Z,21.10
2023-11-22T12:19:27.954Z,19.23
2023-11-22T12:21:54.877Z,19.13
2023-11-22T12:24:21.354Z,19.73
2023-11-22T12:26:48.197Z,18.58
2023-11-22T12:29:15.131Z,18.83
2023-11-22T12:31:51.816Z,19.80
2023-11-22T12:34:18.616Z,21.90
2023-11-22T12:36:46.616Z,23.50
2023-11-22T12:39:16.834Z,26.08
2023-11-22T12:41:44.468Z,22.85
2023-11-22T12:44:11.026Z,25.38
2023-11-22T12:47:12.106Z,26.10
2023-11-22T12:49:46.712Z,24.90
2023-11-22T12:52:13.252Z,26.98
2023-11-22T12:54:39.822Z,26.05
2023-11-22T12:57:11.385Z,28.02
2023-11-22T12:59:37.746Z,27.08
2023-11-22T13:02:04.285Z,27.70
2023-11-22T13:04:32.351Z,24.55
2023-11-22T13:07:01.017Z,27.23
2023-11-22T13:09:27.618Z,27.05
2023-11-22T13:11:54.024Z,33.10
2023-11-22T13:14:20.388Z,27.17
2023-11-22T13:16:46.798Z,23.88
2023-11-22T13:19:13.261Z,23.58
2023-11-22T13:21:42.077Z,25.38
2023-11-22T13:24:08.924Z,23.67
2023-11-22T13:26:36.023Z,21.10
2023-11-22T13:29:02.503Z,25.38
2023-11-22T13:31:28.915Z,20.40
2023-11-22T13:33:55.957Z,21.40
2023-11-22T13:36:22.255Z,28.17
2023-11-22T13:38:48.610Z,20.17
2023-11-22T13:41:14.942Z,30.25
2023-11-22T13:43:41.302Z,21.73
2023-11-22T13:46:11.178Z,22.10
2023-11-22T13:48:37.617Z,20.08
2023-11-22T13:51:07.243Z,22.17
2023-11-22T13:53:37.358Z,26.50
2023-11-22T13:56:09.616Z,21.90
2023-11-22T13:58:36.747Z,22.17
2023-11-22T14:01:07.081Z,23.50
2023-11-22T14:03:34.355Z,25.40
2023-11-22T14:06:01.740Z,24.10
2023-11-22T14:08:28.244Z,26.17
2023-11-22T14:10:54.673Z,24.50
2023-11-22T14:13:22.107Z,27.17
2023-11-22T14:15:48.498Z,29.77
2023-11-22T14:18:14.901Z,28.13
2023-11-22T14:20:41.293Z,25.05
2023-11-22T14:23:08.720Z,28.20
2023-11-22T14:25:35.116Z,29.52
2023-11-22T14:28:01.626Z,30.23
2023-11-22T14:30:30.211Z,24.67
2023-11-22T14:32:56.635Z,28.73
2023-11-22T14:35:24.133Z,28.35
2023-11-22T14:37:50.716Z,27.35
2023-11-22T14:40:18.001Z,30.10
2023-11-22T14:42:50.176Z,24.40
2023-11-22T14:45:16.494Z,26.83
2023-11-22T14:47:45.904Z,30.50
2023-11-22T14:50:13.284Z,27.25
2023-11-22T14:52:40.074Z,24.00
2023-11-22T14:55:06.532Z,23.13
2023-11-22T14:57:33.224Z,28.00
2023-11-22T14:59:59.559Z,22.17
2023-11-22T15:02:27.651Z,22.13
2023-11-22T15:04:54.044Z,34.45
2023-11-22T15:07:20.311Z,27.10
2023-11-22T15:09:47.226Z,31.42
2023-11-22T15:12:13.560Z,26.77
2023-11-22T15:14:39.895Z,29.88
2023-11-22T15:17:06.280Z,25.02
2023-11-22T15:19:32.945Z,27.20
2023-11-22T15:21:59.917Z,24.88
2023-11-22T15:24:27.432Z,25.02
2023-11-22T15:26:53.836Z,25.58
2023-11-22T15:29:20.537Z,23.33
2023-11-22T15:31:46.987Z,23.38
2023-11-22T15:34:13.330Z,22.85
2023-11-22T15:36:40.579Z,20.65
2023-11-22T15:39:07.347Z,22.85
2023-11-22T15:41:33.782Z,26.15
2023-11-22T15:44:00.153Z,24.23
2023-11-22T15:46:26.678Z,25.50
2023-11-22T15:48:53.241Z,26.20
2023-11-22T15:51:19.632Z,28.27
2023-11-22T15:53:45.958Z,24.92
2023-11-22T15:56:18.238Z,24.98
2023-11-22T15:58:44.961Z,23.52
2023-11-22T16:01:12.230Z,24.05
2023-11-22T16:03:40.494Z,28.17
2023-11-22T16:06:09.004Z,26.95
2023-11-22T16:08:35.797Z,33.05
2023-11-22T16:11:02.169Z,27.75
2023-11-22T16:13:28.436Z,28.80
2023-11-22T16:15:56.398Z,29.17
2023-11-22T16:18:27.170Z,33.65
2023-11-22T16:20:57.368Z,40.88
2023-11-22T16:23:23.745Z,57.43
2023-11-22T16:25:51.011Z,38.42
2023-11-22T16:28:17.905Z,37.13
2023-11-22T16:30:44.473Z,39.38
2023-11-22T16:33:11.266Z,36.88
2023-11-22T16:35:37.630Z,42.38
2023-11-22T16:38:04.858Z,44.03
2023-11-22T16:40:31.632Z,43.03
2023-11-22T16:42:58.448Z,49.95
2023-11-22T16:45:26.498Z,39.95
2023-11-22T16:47:55.982Z,47.17
2023-11-22T16:50:22.566Z,44.15
2023-11-22T16:52:48.917Z,49.10
2023-11-22T16:55:15.334Z,49.90
2023-11-22T16:57:41.715Z,51.50
2023-11-22T17:00:11.030Z,48.10
2023-11-22T17:02:37.680Z,48.80
2023-11-22T17:05:04.287Z,47.63
2023-11-22T17:07:30.714Z,49.05
2023-11-22T17:09:57.445Z,44.08
2023-11-22T17:12:23.799Z,48.20
2023-11-22T17:14:50.201Z,47.65
2023-11-22T17:17:16.685Z,48.75
2023-11-22T17:19:42.991Z,51.60
2023-11-22T17:22:09.458Z,45.65
2023-11-22T17:24:35.856Z,46.90
2023-11-22T17:27:02.187Z,47.55
2023-11-22T17:29:30.952Z,47.05
2023-11-22T17:31:57.315Z,49.88
2023-11-22T17:34:23.720Z,48.97
2023-11-22T17:36:50.040Z,43.25
2023-11-22T17:39:17.518Z,44.78
2023-11-22T17:41:44.078Z,45.65
2023-11-22T17:44:10.848Z,42.20
2023-11-22T17:46:41.547Z,47.85
2023-11-22T17:49:08.890Z,45.53
2023-11-22T17:51:39.081Z,47.05
2023-11-22T17:54:06.859Z,46.10
2023-11-22T17:56:33.136Z,82.60
2023-11-22T17:58:59.401Z,59.00
2023-11-22T18:01:25.740Z,50.97
2023-11-22T18:03:52.993Z,42.15
2023-11-22T18:06:20.324Z,48.83
2023-11-22T18:08:47.169Z,40.17
2023-11-22T18:11:13.745Z,38.95
2023-11-22T18:13:40.715Z,42.08
2023-11-22T18:16:07.102Z,38.90
2023-11-22T18:18:33.465Z,36.65
2023-11-22T18:20:59.790Z,42.83
2023-11-22T18:23:27.203Z,35.47
2023-11-22T18:25:53.561Z,41.08
2023-11-22T18:28:19.937Z,37.33
2023-11-22T18:30:46.229Z,35.33
2023-11-22T18:33:13.407Z,39.53
2023-11-22T18:35:40.400Z,34.63
2023-11-22T18:38:06.726Z,33.70
2023-11-22T18:40:34.245Z,41.25
2023-11-22T18:43:00.729Z,34.20
2023-11-22T18:45:27.022Z,38.53
2023-11-22T18:47:54.926Z,37.88
2023-11-22T18:50:21.288Z,32.70
2023-11-22T18:52:47.648Z,29.77
2023-11-22T18:55:13.963Z,35.10
2023-11-22T18:57:41.750Z,38.10
2023-11-22T19:00:08.460Z,30.98
2023-11-22T19:02:34.962Z,60.30
2023-11-22T19:05:01.578Z,32.72
2023-11-22T19:07:27.904Z,31.83
2023-11-22T19:09:55.765Z,32.10
2023-11-22T19:12:22.244Z,33.65
2023-11-22T19:14:48.581Z,30.85
2023-11-22T19:17:16.076Z,35.75
2023-11-22T19:19:42.601Z,32.15
2023-11-22T19:22:09.370Z,37.25
2023-11-22T19:24:35.701Z,29.50
2023-11-22T19:27:03.118Z,30.73
2023-11-22T19:29:29.518Z,29.15
2023-11-22T19:31:56.902Z,32.35
2023-11-22T19:34:23.253Z,36.15
2023-11-22T19:36:49.589Z,29.17
2023-11-22T19:39:15.929Z,28.77
2023-11-22T19:41:42.312Z,31.63
2023-11-22T19:44:08.768Z,34.25
2023-11-22T19:46:35.121Z,28.88
2023-11-22T19:49:04.554Z,36.83
2023-11-22T19:51:30.911Z,29.02
2023-11-22T19:53:57.275Z,30.83
2023-11-22T19:56:28.058Z,31.38
2023-11-22T20:01:20.840Z,33.40
2023-11-22T20:03:47.396Z,33.08
2023-11-22T20:06:14.296Z,29.08
2023-11-22T20:08:40.708Z,31.45
2023-11-22T20:11:07.041Z,28.73
2023-11-22T20:13:33.379Z,32.08
2023-11-22T20:15:59.802Z,29.35
2023-11-22T20:18:27.389Z,29.17
2023-11-22T20:20:54.788Z,28.35
2023-11-22T20:23:22.176Z,33.10
2023-11-22T20:25:48.575Z,29.70
2023-11-22T20:28:15.004Z,34.22
2023-11-22T20:30:41.566Z,29.73
2023-11-22T20:33:08.114Z,32.88
2023-11-22T20:35:34.634Z,30.05
2023-11-22T20:38:00.935Z,26.45
2023-11-22T20:40:27.265Z,33.40
2023-11-22T20:42:53.704Z,30.52
2023-11-22T20:45:20.138Z,30.13
2023-11-22T20:47:46.828Z,35.30
2023-11-22T20:50:13.249Z,31.52
2023-11-22T20:52:40.056Z,34.15
2023-11-22T20:55:09.210Z,41.13
2023-11-22T20:57:38.831Z,43.63
2023-11-22T21:00:06.620Z,30.53
2023-11-22T21:02:35.003Z,34.92
2023-11-22T21:05:04.018Z,35.00
2023-11-22T21:07:30.286Z,39.33
2023-11-22T21:09:57.112Z,36.67
2023-11-22T21:12:23.389Z,44.10
2023-11-22T21:14:49.713Z,50.97
2023-11-22T21:17:17.351Z,33.33
2023-11-22T21:19:45.375Z,43.08
2023-11-22T21:22:11.635Z,39.42
2023-11-22T21:24:39.786Z,47.00
2023-11-22T21:27:06.086Z,39.80
2023-11-22T21:29:32.446Z,44.80
2023-11-22T21:31:59.752Z,39.20
2023-11-22T21:34:27.023Z,44.47
2023-11-22T21:36:53.960Z,40.00
2023-11-22T21:39:22.324Z,39.58
2023-11-22T21:41:50.287Z,44.15
2023-11-22T21:44:17.013Z,36.78
2023-11-22T21:46:43.413Z,37.15
2023-11-22T21:49:09.807Z,40.80
2023-11-22T21:51:37.235Z,44.97
2023-11-22T21:54:05.711Z,34.28
2023-11-22T21:56:34.405Z,37.40
2023-11-22T21:59:01.047Z,39.58
2023-11-22T22:01:27.344Z,38.45
2023-11-22T22:03:53.919Z,37.30
2023-11-22T22:06:23.598Z,37.20
2023-11-22T22:08:50.201Z,36.53
2023-11-22T22:11:16.710Z,38.10
2023-11-22T22:13:43.063Z,33.13
2023-11-22T22:16:10.692Z,36.58
2023-11-22T22:18:40.075Z,43.30
2023-11-22T22:21:06.564Z,38.50
2023-11-22T22:23:36.892Z,38.65
2023-11-22T22:26:03.298Z,38.33
2023-11-22T22:28:30.211Z,37.85
2023-11-22T22:30:57.352Z,42.85
2023-11-22T22:33:24.139Z,35.25
2023-11-22T22:35:50.656Z,39.03
2023-11-22T22:38:17.099Z,42.90
2023-11-22T22:40:43.402Z,40.40
2023-11-22T22:43:10.708Z,40.45
2023-11-22T22:45:37.061Z,47.10
2023-11-22T22:48:03.988Z,53.47
2023-11-22T22:50:30.712Z,44.90
2023-11-22T22:52:57.442Z,44.58
2023-11-22T22:55:23.710Z,45.70
2023-11-22T22:57:49.985Z,43.08
2023-11-22T23:00:34.914Z,51.85
2023-11-22T23:03:01.306Z,46.30
2023-11-22T23:05:27.745Z,42.80
2023-11-22T23:07:54.285Z,47.15
2023-11-22T23:10:20.615Z,46.50
2023-11-22T23:12:46.942Z,44.42
2023-11-22T23:15:13.322Z,47.53
2023-11-22T23:17:39.808Z,45.95
2023-11-22T23:20:07.914Z,41.03
2023-11-22T23:22:34.301Z,43.88
2023-11-22T23:25:00.752Z,49.65
2023-11-22T23:27:27.310Z,47.95
2023-11-22T23:29:53.994Z,51.10
2023-11-22T23:32:21.455Z,51.13
2023-11-22T23:34:48.450Z,54.67
2023-11-22T23:37:14.790Z,62.80
2023-11-22T23:39:41.125Z,48.63
2023-11-22T23:42:14.209Z,41.63
2023-11-22T23:44:41.392Z,47.13
2023-11-22T23:47:07.724Z,43.80
2023-11-22T23:49:33.986Z,55.35
2023-11-22T23:52:02.756Z,49.00
2023-11-22T23:54:30.389Z,46.08
2023-11-22T23:56:56.677Z,46.65
2023-11-22T23:59:24.037Z,45.13
